Time;durP1;ratioP1;P1;durP2;ratioP2;P2;SDS_P1;SDS_P2;PMS_P1;PMS_P2;Temp;Humidity;BMP_temperature;BMP_pressure;BME280_temperature;BME280_humidity;BME280_pressure;Samples;Min_cycle;Max_cycle;Signal;HPM_P1;HPM_P2
2023/06/19 00:01:31;;;;;;;12.77;11.68;;;;;;;15.37;100.00;96607.22;4962611;28;20098;-84
2023/06/19 00:03:57;;;;;;;13.73;12.48;;;;;;;15.30;100.00;96605.25;4961856;28;20397;-83
2023/06/19 00:06:22;;;;;;;13.75;11.85;;;;;;;15.25;100.00;96604.09;4963365;28;20427;-84
2023/06/19 00:08:47;;;;;;;13.27;11.98;;;;;;;15.19;100.00;96628.19;4962581;28;20030;-84
2023/06/19 00:11:13;;;;;;;14.02;12.55;;;;;;;15.13;100.00;96628.81;4961180;28;20700;-84
2023/06/19 00:13:39;;;;;;;16.63;13.48;;;;;;;15.08;100.00;96634.53;4963270;28;20031;-85
2023/06/19 00:16:05;;;;;;;17.38;14.07;;;;;;;15.00;100.00;96624.03;4960064;28;20038;-84
2023/06/19 00:18:30;;;;;;;15.85;13.48;;;;;;;14.93;100.00;96630.06;4962052;28;20038;-85
2023/06/19 00:20:56;;;;;;;17.85;15.55;;;;;;;14.75;100.00;96617.88;4946435;28;20568;-81
2023/06/19 00:23:22;;;;;;;15.35;14.15;;;;;;;14.72;100.00;96633.84;4964545;28;20042;-81
2023/06/19 00:25:48;;;;;;;16.45;15.00;;;;;;;14.76;100.00;96629.97;4941397;29;20027;-84
2023/06/19 00:28:14;;;;;;;15.82;14.25;;;;;;;14.69;100.00;96635.94;4962496;28;20050;-86
2023/06/19 00:30:41;;;;;;;16.70;15.30;;;;;;;14.64;100.00;96635.59;4961278;28;20031;-87
2023/06/19 00:33:07;;;;;;;18.52;16.67;;;;;;;14.55;100.00;96639.94;4960601;28;20568;-87
2023/06/19 00:35:33;;;;;;;18.00;15.70;;;;;;;14.53;100.00;96639.28;4961596;28;20038;-86
2023/06/19 00:38:00;;;;;;;19.33;17.38;;;;;;;14.61;100.00;96662.78;4961954;28;20487;-86
2023/06/19 00:40:34;;;;;;;20.83;18.98;;;;;;;14.59;100.00;96675.16;4962973;28;20023;-87
2023/06/19 00:43:00;;;;;;;19.92;17.95;;;;;;;14.64;100.00;96682.53;4959832;28;20034;-84
2023/06/19 00:45:26;;;;;;;19.45;17.63;;;;;;;14.52;100.00;96675.91;4962315;28;20026;-85
2023/06/19 00:47:55;;;;;;;21.30;15.85;;;;;;;14.45;100.00;96675.69;4960500;28;20507;-85
2023/06/19 00:50:21;;;;;;;18.30;16.45;;;;;;;14.45;100.00;96678.31;4943536;28;20531;-86
2023/06/19 00:52:47;;;;;;;19.15;16.23;;;;;;;14.34;100.00;96689.00;4946004;28;20027;-83
2023/06/19 00:55:13;;;;;;;18.73;16.85;;;;;;;14.29;100.00;96685.97;4962930;28;20057;-81
2023/06/19 00:57:39;;;;;;;17.73;16.13;;;;;;;14.24;100.00;96683.84;4961247;28;20019;-86
2023/06/19 01:00:07;;;;;;;16.92;15.15;;;;;;;14.12;100.00;96676.41;4944218;28;20036;-81
2023/06/19 01:02:35;;;;;;;16.63;14.95;;;;;;;13.99;100.00;96671.56;4959446;28;20027;-82
2023/06/19 01:05:01;;;;;;;17.03;14.90;;;;;;;13.88;100.00;96668.34;4989366;28;20047;-81
2023/06/19 01:07:44;;;;;;;20.60;14.25;;;;;;;13.89;100.00;96673.41;4973580;28;20408;-80
2023/06/19 01:10:15;;;;;;;16.70;15.02;;;;;;;13.83;100.00;96674.00;4992395;28;20018;-82
2023/06/19 01:13:10;;;;;;;19.45;15.23;;;;;;;13.76;100.00;96672.97;4972956;28;20022;-80
2023/06/19 01:15:36;;;;;;;22.40;16.73;;;;;;;13.70;100.00;96670.94;4972788;28;20046;-81
2023/06/19 01:18:02;;;;;;;17.77;16.02;;;;;;;13.66;100.00;96685.22;4976259;28;20038;-81
2023/06/19 01:20:28;;;;;;;18.08;15.20;;;;;;;13.61;100.00;96683.03;4987124;28;20058;-81
2023/06/19 01:22:56;;;;;;;16.70;14.52;;;;;;;13.63;100.00;96681.13;4985250;28;20086;-81
2023/06/19 01:25:25;;;;;;;15.65;14.15;;;;;;;13.64;100.00;96674.97;4981867;28;20042;-80
2023/06/19 01:27:50;;;;;;;32.90;16.02;;;;;;;13.55;100.00;96672.41;4976304;28;20030;-81
2023/06/19 01:30:16;;;;;;;15.25;13.85;;;;;;;13.54;100.00;96674.19;4983220;28;20054;-80
2023/06/19 01:32:52;;;;;;;22.30;14.43;;;;;;;13.60;100.00;96680.59;5112604;23;20129;-83
2023/06/19 01:35:21;;;;;;;15.98;13.90;;;;;;;13.52;100.00;96667.47;4961268;28;20027;-81
2023/06/19 01:37:47;;;;;;;16.13;14.57;;;;;;;13.59;100.00;96678.94;4956538;28;20117;-82
2023/06/19 01:40:14;;;;;;;15.32;13.82;;;;;;;13.57;100.00;96673.09;4961761;28;20285;-81
2023/06/19 01:42:40;;;;;;;16.58;14.07;;;;;;;13.46;100.00;96665.47;4950847;28;20030;-80
2023/06/19 01:45:06;;;;;;;23.48;15.27;;;;;;;13.45;100.00;96663.84;4976029;28;20026;-79
2023/06/19 01:47:32;;;;;;;15.82;14.32;;;;;;;13.48;100.00;96668.75;4948261;28;20588;-78
2023/06/19 01:49:57;;;;;;;15.38;13.95;;;;;;;13.47;100.00;96664.50;4963800;28;20194;-79
2023/06/19 01:52:24;;;;;;;17.85;14.55;;;;;;;13.32;100.00;96652.94;4962515;28;20026;-78
2023/06/19 01:54:50;;;;;;;15.95;14.40;;;;;;;13.27;100.00;96652.56;4956842;28;20030;-80
2023/06/19 01:57:15;;;;;;;19.67;14.90;;;;;;;13.19;100.00;96654.13;4964145;28;20041;-80
2023/06/19 01:59:41;;;;;;;15.75;14.30;;;;;;;13.23;100.00;96664.25;4962042;28;20925;-81
2023/06/19 02:02:06;;;;;;;17.13;15.63;;;;;;;13.16;100.00;96661.38;4945699;28;20173;-81
2023/06/19 02:04:32;;;;;;;16.45;14.75;;;;;;;13.05;100.00;96659.75;4968167;28;20026;-78
2023/06/19 02:06:58;;;;;;;14.13;13.00;;;;;;;13.17;100.00;96671.63;4969213;28;20035;-79
2023/06/19 02:09:23;;;;;;;14.30;12.63;;;;;;;13.12;100.00;96673.88;4959645;28;20803;-80
2023/06/19 02:11:49;;;;;;;14.70;13.20;;;;;;;13.12;100.00;96671.25;4972278;28;20501;-79
2023/06/19 02:14:14;;;;;;;14.00;12.68;;;;;;;13.07;100.00;96670.00;4977387;28;20042;-83
2023/06/19 02:16:43;;;;;;;13.52;12.18;;;;;;;13.04;100.00;96678.09;4951241;28;20504;-79
2023/06/19 02:19:11;;;;;;;15.02;12.57;;;;;;;13.04;100.00;96673.72;4975005;28;20034;-82
2023/06/19 02:21:37;;;;;;;14.43;11.88;;;;;;;13.09;100.00;96678.53;4961573;28;20022;-84
2023/06/19 02:24:03;;;;;;;16.60;12.70;;;;;;;13.09;100.00;96675.94;4957988;28;20019;-83
2023/06/19 02:26:29;;;;;;;13.10;11.52;;;;;;;13.06;100.00;96673.59;4960993;28;20034;-80
2023/06/19 02:28:55;;;;;;;13.60;12.20;;;;;;;12.95;100.00;96658.97;4945812;28;20041;-82
2023/06/19 02:31:22;;;;;;;27.55;13.50;;;;;;;13.05;100.00;96677.13;4941140;29;20027;-81
2023/06/19 02:33:47;;;;;;;14.18;12.77;;;;;;;13.09;100.00;96687.16;4960412;28;20025;-79
2023/06/19 02:36:13;;;;;;;16.30;12.30;;;;;;;13.13;100.00;96680.69;4944014;28;20027;-81
2023/06/19 02:38:39;;;;;;;16.02;11.90;;;;;;;13.16;100.00;96693.41;4960096;28;20023;-83
2023/06/19 02:41:04;;;;;;;12.90;11.80;;;;;;;13.08;100.00;96687.25;4944600;28;20038;-83
2023/06/19 02:43:30;;;;;;;14.65;13.30;;;;;;;13.07;100.00;96699.44;4959603;28;20121;-80
2023/06/19 02:45:55;;;;;;;15.73;12.50;;;;;;;13.09;100.00;96689.75;4960568;28;20493;-86
2023/06/19 02:48:23;;;;;;;16.95;12.52;;;;;;;13.15;100.00;96696.16;4943486;28;20061;-82
2023/06/19 02:50:48;;;;;;;13.05;11.85;;;;;;;13.15;100.00;96702.19;4961575;28;20039;-79
2023/06/19 02:53:14;;;;;;;12.32;11.13;;;;;;;13.19;100.00;96718.34;4961144;28;20077;-78
2023/06/19 02:55:39;;;;;;;12.13;11.02;;;;;;;13.19;100.00;96715.75;4960229;28;20023;-79
2023/06/19 02:58:05;;;;;;;12.68;11.60;;;;;;;13.25;100.00;96722.16;4960583;28;20031;-79
2023/06/19 03:00:31;;;;;;;19.15;12.07;;;;;;;13.23;100.00;96726.69;4959590;28;20029;-78
2023/06/19 03:02:57;;;;;;;40.42;30.42;;;;;;;13.20;100.00;96720.78;4944416;28;20125;-79
2023/06/19 03:05:22;;;;;;;38.25;26.55;;;;;;;13.20;100.00;96730.38;4960821;28;20022;-79
2023/06/19 03:07:47;;;;;;;32.40;23.73;;;;;;;13.16;100.00;96718.63;4960388;28;20097;-81
2023/06/19 03:10:13;;;;;;;18.50;16.60;;;;;;;13.28;100.00;96717.47;4960707;28;20034;-80
2023/06/19 03:12:38;;;;;;;17.20;15.55;;;;;;;13.24;100.00;96702.28;4962076;28;20035;-80
2023/06/19 03:15:04;;;;;;;14.90;12.63;;;;;;;13.35;100.00;96705.53;4962885;28;20046;-80
2023/06/19 03:17:30;;;;;;;10.70;9.85;;;;;;;13.44;100.00;96706.44;4963320;28;20114;-78
2023/06/19 03:19:56;;;;;;;12.85;11.60;;;;;;;13.44;100.00;96690.81;4963800;28;20030;-78
2023/06/19 03:22:21;;;;;;;10.57;9.50;;;;;;;13.50;100.00;96682.44;4962843;28;20058;-79
2023/06/19 03:24:47;;;;;;;11.05;10.15;;;;;;;13.62;100.00;96679.47;4963578;28;20030;-78
2023/06/19 03:27:12;;;;;;;10.20;8.73;;;;;;;13.69;100.00;96658.88;4946293;28;20038;-79
2023/06/19 03:29:38;;;;;;;9.98;8.63;;;;;;;13.93;100.00;96633.09;4963530;28;20555;-80
2023/06/19 03:32:03;;;;;;;6.72;6.13;;;;;;;14.72;100.00;96554.78;4962133;28;20481;-77
2023/06/19 03:34:29;;;;;;;7.30;5.75;;;;;;;15.61;100.00;96361.75;4963386;28;20038;-78
2023/06/19 03:36:54;;;;;;;8.27;4.95;;;;;;;16.11;100.00;96100.88;4964267;28;20023;-79
2023/06/19 03:39:20;;;;;;;7.63;5.22;;;;;;;16.46;100.00;95809.13;4946586;28;20046;-79
2023/06/19 03:41:45;;;;;;;8.48;5.13;;;;;;;16.94;100.00;95621.78;4963299;28;20062;-79
2023/06/19 03:44:11;;;;;;;5.30;4.82;;;;;;;17.26;100.00;95492.03;4963742;28;20889;-79
2023/06/19 03:46:36;;;;;;;13.38;11.43;;;;;;;17.39;100.00;95403.81;4964729;28;20113;-79
2023/06/19 03:49:04;;;;;;;10.85;9.82;;;;;;;17.95;100.00;95340.47;4961670;28;20093;-79
2023/06/19 03:51:30;;;;;;;7.47;6.90;;;;;;;18.17;100.00;95291.97;4963386;28;20113;-79
2023/06/19 03:53:55;;;;;;;9.50;6.22;;;;;;;18.20;100.00;95285.53;4962096;28;20025;-80
2023/06/19 03:56:20;;;;;;;8.63;5.45;;;;;;;18.47;100.00;95250.25;4962850;28;20097;-80
2023/06/19 03:58:46;;;;;;;7.53;4.97;;;;;;;18.83;100.00;95215.50;4962541;28;20500;-80
2023/06/19 04:01:11;;;;;;;6.97;5.22;;;;;;;18.90;100.00;95192.63;4961770;28;20632;-79
2023/06/19 04:03:37;;;;;;;6.78;5.28;;;;;;;19.28;100.00;95172.25;4963342;28;20022;-80
2023/06/19 04:06:02;;;;;;;6.30;4.97;;;;;;;19.63;100.00;95142.75;4961463;28;20045;-80
2023/06/19 04:08:28;;;;;;;8.30;4.60;;;;;;;19.99;100.00;95132.97;4946961;28;20030;-79
2023/06/19 04:10:54;;;;;;;5.97;4.65;;;;;;;20.44;100.00;95085.97;4962795;28;20022;-80
2023/06/19 04:13:19;;;;;;;9.32;4.25;;;;;;;20.78;100.00;95073.81;4962890;28;20027;-80
2023/06/19 04:15:45;;;;;;;6.38;3.83;;;;;;;20.90;100.00;95076.44;4962026;28;20121;-80
2023/06/19 04:18:10;;;;;;;4.90;4.43;;;;;;;21.33;100.00;95055.75;4945701;28;20070;-80
2023/06/19 04:20:36;;;;;;;6.53;4.05;;;;;;;21.62;100.00;95046.00;4962662;28;20519;-80
2023/06/19 04:23:01;;;;;;;8.50;5.00;;;;;;;21.99;100.00;95027.94;4961912;28;20050;-80
2023/06/19 04:25:27;;;;;;;8.23;5.57;;;;;;;22.14;100.00;95030.81;4945895;28;20121;-82
2023/06/19 04:27:52;;;;;;;10.30;6.22;;;;;;;22.57;100.00;95019.59;4944826;28;20031;-79
2023/06/19 04:30:20;;;;;;;6.53;4.90;;;;;;;22.86;100.00;95002.53;4962183;28;20031;-76
2023/06/19 04:32:46;;;;;;;6.68;4.85;;;;;;;23.16;100.00;95043.59;4961352;28;20058;-80
2023/06/19 04:35:12;;;;;;;5.50;4.97;;;;;;;22.97;100.00;95051.84;4962031;28;20031;-80
2023/06/19 04:37:37;;;;;;;5.28;4.85;;;;;;;23.66;100.00;95009.81;4962248;28;20026;-80
2023/06/19 04:40:07;;;;;;;4.82;4.20;;;;;;;23.94;100.00;95032.56;4945296;28;20849;-79
2023/06/19 04:42:33;;;;;;;5.10;4.70;;;;;;;23.77;100.00;95037.16;4961979;28;20166;-79
2023/06/19 04:44:59;;;;;;;6.85;5.50;;;;;;;24.12;100.00;95034.84;4960522;28;20126;-79
2023/06/19 04:47:25;;;;;;;5.47;4.50;;;;;;;24.36;100.00;95014.91;4962460;28;20027;-81
2023/06/19 04:49:50;;;;;;;10.82;4.80;;;;;;;24.66;97.54;94988.59;4961071;28;20033;-78
2023/06/19 04:52:15;;;;;;;8.60;5.45;;;;;;;24.84;92.72;94973.34;4963182;28;20460;-79
2023/06/19 04:54:41;;;;;;;5.38;4.88;;;;;;;25.20;85.71;94953.06;4961655;28;20042;-79
2023/06/19 04:57:06;;;;;;;5.60;5.10;;;;;;;25.23;86.79;94950.69;4961141;28;20051;-79
2023/06/19 04:59:33;;;;;;;6.07;4.78;;;;;;;25.53;85.43;94944.66;4963162;28;20049;-79
2023/06/19 05:01:59;;;;;;;5.60;4.88;;;;;;;25.61;84.23;94957.41;4960642;28;20030;-80
2023/06/19 05:04:24;;;;;;;5.30;4.65;;;;;;;26.12;82.21;94944.94;4962948;28;20034;-79
2023/06/19 05:06:50;;;;;;;4.78;4.38;;;;;;;26.58;79.30;94938.50;4960341;28;20723;-79
2023/06/19 05:09:16;;;;;;;6.72;5.10;;;;;;;26.70;74.87;94920.38;4961653;28;20508;-77
2023/06/19 05:11:41;;;;;;;6.90;4.97;;;;;;;26.98;76.11;94921.59;4944533;28;20117;-80
2023/06/19 05:14:07;;;;;;;5.63;4.55;;;;;;;27.49;71.53;94911.47;4945147;28;20029;-80
2023/06/19 05:16:35;;;;;;;5.25;4.75;;;;;;;27.84;70.75;94918.41;4963000;28;20480;-78
2023/06/19 05:19:01;;;;;;;5.75;5.07;;;;;;;27.91;67.83;94905.56;4962017;28;20035;-80
2023/06/19 05:21:26;;;;;;;5.20;4.80;;;;;;;28.53;63.67;94896.72;4961414;28;20605;-78
2023/06/19 05:23:52;;;;;;;9.25;4.95;;;;;;;29.10;58.93;94887.75;4961529;28;20058;-78
2023/06/19 05:26:18;;;;;;;8.27;4.50;;;;;;;29.92;57.31;94887.34;4961422;28;20023;-79
2023/06/19 05:28:44;;;;;;;6.07;5.30;;;;;;;29.90;57.09;94881.50;4961758;28;20118;-76
2023/06/19 05:31:09;;;;;;;6.00;4.90;;;;;;;30.26;55.87;94885.13;4963042;28;20444;-78
2023/06/19 05:33:34;;;;;;;5.68;4.63;;;;;;;30.97;53.90;94886.47;4960748;28;20038;-76
2023/06/19 05:36:01;;;;;;;4.97;4.63;;;;;;;31.47;51.97;94885.34;4944438;28;20035;-76
2023/06/19 05:38:28;;;;;;;4.43;4.13;;;;;;;32.32;50.45;94895.88;4960317;28;20038;-76
2023/06/19 05:40:53;;;;;;;4.97;4.53;;;;;;;32.50;47.20;94894.06;4960344;28;20459;-77
2023/06/19 05:43:19;;;;;;;6.85;4.30;;;;;;;32.22;49.44;94900.72;4945065;28;20105;-77
2023/06/19 05:45:44;;;;;;;5.37;3.50;;;;;;;31.95;49.33;94895.50;4959875;28;20038;-77
2023/06/19 05:48:10;;;;;;;6.32;4.18;;;;;;;32.80;45.84;94893.25;4962761;28;20035;-77
2023/06/19 05:50:35;;;;;;;4.57;4.20;;;;;;;32.34;46.83;94903.59;4959923;28;20054;-76
2023/06/19 05:53:01;;;;;;;5.17;4.20;;;;;;;31.95;48.54;94908.91;4944745;28;20041;-77
2023/06/19 05:55:27;;;;;;;6.97;4.10;;;;;;;32.75;46.21;94906.81;4960437;28;20047;-76
2023/06/19 05:57:53;;;;;;;4.60;4.18;;;;;;;32.96;44.82;94900.84;4943507;28;20109;-78
2023/06/19 06:00:19;;;;;;;4.63;4.25;;;;;;;33.34;43.71;94891.94;4960567;28;20034;-82
2023/06/19 06:02:44;;;;;;;4.00;3.80;;;;;;;33.53;43.37;94891.63;4943699;28;20038;-78
2023/06/19 06:05:10;;;;;;;4.00;3.70;;;;;;;33.50;44.15;94888.78;4961505;28;20074;-77
2023/06/19 06:07:35;;;;;;;6.13;3.83;;;;;;;33.77;43.35;94888.50;4959850;28;20045;-79
2023/06/19 06:10:01;;;;;;;6.10;4.30;;;;;;;34.79;42.57;94890.13;4961264;28;20031;-76
2023/06/19 06:12:26;;;;;;;4.20;3.80;;;;;;;33.78;42.67;94888.16;4960273;28;20497;-78
2023/06/19 06:14:52;;;;;;;4.70;3.40;;;;;;;34.17;43.44;94894.44;4960337;28;20489;-79
2023/06/19 06:17:17;;;;;;;4.50;3.97;;;;;;;34.15;43.24;94894.00;4960691;28;20096;-79
2023/06/19 06:19:43;;;;;;;9.30;4.25;;;;;;;34.64;43.31;94889.88;4960817;28;20026;-83
2023/06/19 06:22:08;;;;;;;4.25;3.90;;;;;;;33.95;42.99;94894.63;4960763;28;20101;-76
2023/06/19 06:24:34;;;;;;;4.93;4.40;;;;;;;33.95;44.03;94887.34;4952327;28;20121;-82
2023/06/19 06:26:59;;;;;;;4.75;4.45;;;;;;;33.15;43.16;94891.44;4947980;28;20901;-82
2023/06/19 06:29:25;;;;;;;7.63;5.47;;;;;;;30.25;48.75;94892.34;4943548;28;20085;-80
2023/06/19 06:31:52;;;;;;;6.88;4.45;;;;;;;28.61;59.64;94920.06;4957102;28;20137;-78
2023/06/19 06:34:19;;;;;;;4.50;4.13;;;;;;;28.36;63.90;94935.53;4944079;28;20143;-78
2023/06/19 06:36:44;;;;;;;4.77;4.00;;;;;;;28.20;65.75;94929.56;4954679;28;20091;-81
2023/06/19 06:39:10;;;;;;;5.68;3.95;;;;;;;28.07;62.94;94922.22;4940223;28;20027;-78
2023/06/19 06:41:36;;;;;;;6.38;3.95;;;;;;;28.79;59.55;94918.56;4941785;28;20078;-78
2023/06/19 06:44:02;;;;;;;4.72;4.13;;;;;;;30.98;50.85;94904.13;4944908;28;20074;-81
2023/06/19 06:46:27;;;;;;;4.13;3.72;;;;;;;32.60;44.79;94896.50;4959221;28;20042;-77
2023/06/19 06:48:53;;;;;;;4.60;4.30;;;;;;;31.96;48.55;94895.16;4948331;28;20089;-80
2023/06/19 06:51:18;;;;;;;4.30;3.90;;;;;;;29.62;56.24;94907.31;4963446;28;20533;-82
2023/06/19 06:53:44;;;;;;;4.70;4.40;;;;;;;28.96;61.50;94924.19;4965460;28;20093;-79
2023/06/19 06:56:10;;;;;;;10.18;4.30;;;;;;;29.12;60.71;94912.25;4965614;28;20121;-82
2023/06/19 06:58:36;;;;;;;4.90;4.45;;;;;;;29.17;58.23;94909.53;4962931;28;20448;-84
2023/06/19 07:01:02;;;;;;;4.10;3.75;;;;;;;28.47;60.12;94921.84;4964445;28;20029;-78
2023/06/19 07:03:29;;;;;;;8.48;4.45;;;;;;;28.19;62.01;94917.34;4962929;28;20248;-86
2023/06/19 07:05:55;;;;;;;4.43;4.13;;;;;;;29.03;61.50;94916.66;4965721;28;20555;-78
2023/06/19 07:08:21;;;;;;;4.43;4.10;;;;;;;32.28;50.59;94902.16;4964203;28;20035;-83
2023/06/19 07:10:46;;;;;;;5.70;4.55;;;;;;;32.02;49.28;94893.94;4952891;28;20873;-81
2023/06/19 07:13:11;;;;;;;6.22;4.57;;;;;;;28.24;58.91;94923.41;4956064;28;20064;-83
2023/06/19 07:15:37;;;;;;;4.65;4.22;;;;;;;28.06;64.56;94928.66;4937296;28;20463;-84
2023/06/19 07:18:02;;;;;;;5.30;4.22;;;;;;;27.82;67.18;94941.84;4957569;28;20099;-83
2023/06/19 07:20:28;;;;;;;4.88;4.50;;;;;;;27.39;65.27;94930.16;4958005;28;20031;-79
2023/06/19 07:22:53;;;;;;;8.77;4.78;;;;;;;26.96;65.76;94930.94;4953766;28;20405;-84
2023/06/19 07:25:19;;;;;;;11.63;4.50;;;;;;;26.87;67.06;94925.41;4946066;28;20459;-84
2023/06/19 07:27:44;;;;;;;5.70;5.03;;;;;;;26.68;70.58;94933.13;4946944;28;20027;-87
2023/06/19 07:30:10;;;;;;;4.95;4.55;;;;;;;26.40;72.43;94941.72;4962742;28;20092;-87
2023/06/19 07:32:36;;;;;;;7.13;3.72;;;;;;;26.88;73.30;94950.09;4947683;28;20065;-83
2023/06/19 07:35:02;;;;;;;4.60;4.18;;;;;;;26.90;68.54;94929.38;4947630;28;20440;-80
2023/06/19 07:37:27;;;;;;;3.78;3.42;;;;;;;27.01;69.69;94936.22;4962628;28;20068;-81
2023/06/19 07:39:53;;;;;;;4.78;4.28;;;;;;;26.44;68.81;94932.16;4964870;28;20023;-85
2023/06/19 07:42:19;;;;;;;4.78;4.25;;;;;;;26.68;72.61;94937.66;4961939;28;20046;-90
2023/06/19 07:44:45;;;;;;;6.72;3.80;;;;;;;27.34;72.66;94935.50;4944025;29;20027;-82
2023/06/19 07:47:10;;;;;;;4.53;4.07;;;;;;;27.38;74.58;94941.88;4976392;28;20064;-81
2023/06/19 07:49:36;;;;;;;4.07;3.78;;;;;;;26.99;68.27;94930.38;4963637;28;20409;-83
2023/06/19 07:52:02;;;;;;;4.35;3.95;;;;;;;26.82;68.12;94917.41;4946368;28;20122;-82
2023/06/19 07:54:28;;;;;;;5.68;4.05;;;;;;;26.83;69.13;94929.66;4962190;28;20027;-82
2023/06/19 07:56:53;;;;;;;3.83;3.58;;;;;;;26.97;70.66;94930.66;4964153;28;20038;-80
2023/06/19 07:59:19;;;;;;;4.65;4.25;;;;;;;26.52;68.26;94928.16;4961812;28;20551;-80
2023/06/19 08:01:45;;;;;;;3.97;3.50;;;;;;;26.67;67.90;94925.44;4963355;28;20035;-80
2023/06/19 08:04:10;;;;;;;3.72;3.40;;;;;;;26.07;65.05;94905.88;4963233;28;20444;-86
2023/06/19 08:06:36;;;;;;;3.60;3.38;;;;;;;26.79;66.28;94920.59;4947205;28;20027;-81
2023/06/19 08:09:02;;;;;;;7.18;3.72;;;;;;;27.18;74.37;94937.47;4961934;28;20030;-79
2023/06/19 08:11:28;;;;;;;6.97;5.05;;;;;;;26.85;70.31;94934.69;4962986;28;20062;-78
2023/06/19 08:13:53;;;;;;;6.65;4.60;;;;;;;26.32;65.72;94918.38;4964049;28;20065;-77
2023/06/19 08:16:19;;;;;;;4.47;3.70;;;;;;;27.09;74.80;94941.78;4945450;28;20395;-88
2023/06/19 08:18:45;;;;;;;4.00;3.63;;;;;;;26.92;69.82;94927.22;4946470;28;20438;-81
2023/06/19 08:21:11;;;;;;;3.83;3.40;;;;;;;26.86;68.33;94918.47;4945608;28;20058;-82
2023/06/19 08:23:39;;;;;;;4.38;3.50;;;;;;;26.51;66.97;94915.91;4943701;29;20802;-79
2023/06/19 08:26:05;;;;;;;3.88;3.58;;;;;;;26.34;63.68;94908.25;4973657;28;20093;-80
2023/06/19 08:28:33;;;;;;;7.63;3.90;;;;;;;25.79;65.59;94914.41;4962261;28;20377;-84
2023/06/19 08:30:59;;;;;;;6.25;3.67;;;;;;;25.59;63.11;94909.91;4946198;28;20045;-82
2023/06/19 08:33:24;;;;;;;4.70;3.78;;;;;;;26.07;67.71;94923.69;4945946;28;20063;-79
2023/06/19 08:35:50;;;;;;;3.90;3.60;;;;;;;26.50;68.77;94931.06;4962145;28;20039;-81
2023/06/19 08:38:15;;;;;;;3.67;3.38;;;;;;;26.24;60.92;94916.25;4961170;28;20834;-86
2023/06/19 08:40:43;;;;;;;6.32;3.63;;;;;;;26.59;65.97;94923.31;4944406;28;20033;-81
2023/06/19 08:43:08;;;;;;;7.97;3.67;;;;;;;26.80;68.58;94929.38;4951504;28;20484;-80
2023/06/19 08:45:34;;;;;;;7.63;3.65;;;;;;;26.76;66.99;94920.34;4944957;28;20027;-80
2023/06/19 08:48:00;;;;;;;5.43;3.60;;;;;;;26.56;64.44;94919.34;4945265;28;20035;-80
2023/06/19 08:50:26;;;;;;;5.30;3.50;;;;;;;26.76;67.25;94921.16;4953075;28;20061;-83
2023/06/19 08:52:51;;;;;;;4.75;4.10;;;;;;;27.03;72.72;94929.56;4960135;28;20504;-78
2023/06/19 08:55:17;;;;;;;4.60;4.00;;;;;;;27.16;72.18;94933.50;4951415;28;20519;-79
2023/06/19 08:57:42;;;;;;;3.45;3.25;;;;;;;27.18;68.00;94932.16;4959210;28;20035;-78
2023/06/19 09:00:10;;;;;;;4.28;3.50;;;;;;;27.12;69.22;94927.13;4959083;28;20054;-80
2023/06/19 09:02:40;;;;;;;3.95;3.35;;;;;;;27.16;69.67;94930.84;4948279;28;20429;-79
2023/06/19 09:05:17;;;;;;;5.80;3.50;;;;;;;27.12;68.77;94922.59;4967217;28;20328;-81
2023/06/19 09:07:56;;;;;;;6.20;4.35;;;;;;;27.20;68.25;94923.88;4959650;28;20478;-80
2023/06/19 09:10:23;;;;;;;4.00;3.70;;;;;;;26.88;67.72;94921.66;4961144;28;20034;-80
2023/06/19 09:13:03;;;;;;;3.90;3.60;;;;;;;27.11;67.54;94923.66;4960452;28;20031;-84
2023/06/19 09:15:35;;;;;;;4.13;3.78;;;;;;;27.25;72.96;94939.81;4962466;28;20141;-81
2023/06/19 09:18:07;;;;;;;4.07;3.78;;;;;;;27.12;68.90;94927.13;4959462;28;20035;-82
2023/06/19 09:20:40;;;;;;;3.88;3.63;;;;;;;26.95;68.58;94924.00;4951217;28;20042;-81
2023/06/19 09:23:05;;;;;;;4.10;3.70;;;;;;;26.92;66.17;94908.59;4961357;28;20026;-80
2023/06/19 09:25:31;;;;;;;4.22;3.85;;;;;;;27.24;67.54;94906.31;4960659;28;20030;-89
2023/06/19 09:27:57;;;;;;;5.65;4.05;;;;;;;27.36;72.27;94917.38;4953166;28;20156;-77
2023/06/19 09:30:23;;;;;;;4.60;4.15;;;;;;;27.12;65.74;94903.19;4937496;28;20039;-85
2023/06/19 09:32:49;;;;;;;4.00;3.70;;;;;;;27.32;70.25;94911.06;4931965;28;20058;-82
2023/06/19 09:35:14;;;;;;;4.57;3.83;;;;;;;27.44;67.22;94908.88;4959029;28;20047;-83
2023/06/19 09:37:40;;;;;;;4.88;3.55;;;;;;;27.09;71.15;94912.50;4954226;28;20100;-78
2023/06/19 09:40:11;;;;;;;4.68;3.90;;;;;;;26.68;63.57;94890.59;4946454;28;20027;-79
2023/06/19 09:42:45;;;;;;;5.35;3.72;;;;;;;26.80;69.00;94914.22;4948073;28;20031;-77
2023/06/19 09:45:12;;;;;;;6.60;3.60;;;;;;;27.24;68.19;94907.09;4952796;28;20054;-82
2023/06/19 09:47:47;;;;;;;4.40;4.00;;;;;;;27.13;67.03;94897.56;4936664;28;20106;-78
2023/06/19 09:50:14;;;;;;;4.32;3.50;;;;;;;27.28;72.60;94912.66;4955009;28;20034;-78
2023/06/19 09:52:44;;;;;;;4.10;3.80;;;;;;;26.27;63.34;94885.69;4934792;28;20133;-81
2023/06/19 09:55:13;;;;;;;4.30;3.80;;;;;;;26.68;68.27;94895.13;4939209;28;20030;-81
2023/06/19 09:57:39;;;;;;;4.28;3.35;;;;;;;27.03;66.88;94896.84;4957485;28;20035;-81
2023/06/19 10:00:11;;;;;;;4.45;4.05;;;;;;;26.98;67.91;94894.22;4967524;28;20066;-80
2023/06/19 10:02:38;;;;;;;7.05;4.00;;;;;;;26.98;65.73;94902.19;4950735;28;20038;-81
2023/06/19 10:05:03;;;;;;;7.05;3.90;;;;;;;27.12;69.34;94903.19;4947762;28;20026;-78
2023/06/19 10:07:34;;;;;;;3.72;3.42;;;;;;;26.99;70.79;94901.94;4953971;28;20802;-84
2023/06/19 10:10:06;;;;;;;4.28;3.70;;;;;;;27.21;64.52;94885.56;4955023;28;20420;-81
2023/06/19 10:12:41;;;;;;;3.65;3.35;;;;;;;26.89;63.39;94880.69;4952900;28;20564;-79
2023/06/19 10:15:10;;;;;;;3.70;3.40;;;;;;;26.87;65.30;94882.84;4942682;28;20523;-78
2023/06/19 10:17:36;;;;;;;3.83;3.55;;;;;;;27.06;67.93;94877.69;4959654;28;20093;-81
2023/06/19 10:20:03;;;;;;;8.27;3.65;;;;;;;27.20;69.24;94881.31;4960928;28;20030;-80
2023/06/19 10:22:31;;;;;;;3.08;2.85;;;;;;;26.89;60.43;94863.94;4961009;28;20497;-78
2023/06/19 10:24:57;;;;;;;4.22;3.17;;;;;;;26.85;65.31;94873.53;4964868;28;20105;-79
2023/06/19 10:27:24;;;;;;;3.42;3.13;;;;;;;26.93;70.18;94880.94;4962682;28;20556;-82
2023/06/19 10:29:54;;;;;;;4.40;2.88;;;;;;;27.36;65.29;94866.81;4962887;28;20077;-82
2023/06/19 10:32:19;;;;;;;3.30;3.10;;;;;;;27.34;65.89;94871.66;4963881;28;20051;-78
2023/06/19 10:34:49;;;;;;;3.53;3.20;;;;;;;27.01;62.51;94859.88;4963660;28;20039;-79
2023/06/19 10:37:17;;;;;;;3.70;3.40;;;;;;;27.16;67.49;94859.00;4948618;28;20129;-79
2023/06/19 10:39:43;;;;;;;3.72;2.92;;;;;;;27.28;69.35;94871.97;4963065;28;20045;-77
2023/06/19 10:42:09;;;;;;;5.85;3.30;;;;;;;27.23;63.38;94859.47;4948495;28;20047;-81
2023/06/19 10:44:37;;;;;;;2.90;2.70;;;;;;;27.33;60.52;94848.75;4963225;28;20685;-82
2023/06/19 10:47:03;;;;;;;3.83;3.47;;;;;;;27.12;65.86;94863.28;4948462;28;20097;-80
2023/06/19 10:49:28;;;;;;;4.32;3.20;;;;;;;27.26;64.67;94858.91;4945729;28;20504;-78
2023/06/19 10:51:58;;;;;;;6.82;3.40;;;;;;;27.34;64.70;94855.69;4965719;28;20031;-82
2023/06/19 10:54:25;;;;;;;3.30;3.10;;;;;;;27.46;59.66;94842.84;4947527;28;20039;-81
2023/06/19 10:56:51;;;;;;;2.70;2.50;;;;;;;27.50;62.89;94843.06;4939416;29;20035;-82
2023/06/19 10:59:16;;;;;;;3.47;3.10;;;;;;;27.42;59.81;94843.66;4958557;28;20038;-78
2023/06/19 11:01:46;;;;;;;3.35;2.90;;;;;;;27.45;60.89;94846.59;4946862;28;20030;-78
2023/06/19 11:04:13;;;;;;;5.13;3.22;;;;;;;27.55;66.27;94845.72;4947887;28;20488;-82
2023/06/19 11:06:40;;;;;;;3.53;3.22;;;;;;;27.16;61.49;94827.09;4947185;28;20027;-82
2023/06/19 11:09:07;;;;;;;3.35;3.15;;;;;;;27.14;62.60;94835.31;4963766;28;20425;-78
2023/06/19 11:11:43;;;;;;;3.50;3.20;;;;;;;27.70;61.58;94835.72;4963854;28;20472;-79
2023/06/19 11:14:09;;;;;;;3.38;3.00;;;;;;;27.73;63.08;94832.50;4962849;28;20034;-78
2023/06/19 11:16:37;;;;;;;3.33;2.95;;;;;;;27.96;66.06;94836.28;4960809;28;20027;-80
2023/06/19 11:19:03;;;;;;;3.27;2.97;;;;;;;28.19;60.97;94830.16;4945145;28;20034;-79
2023/06/19 11:21:38;;;;;;;3.45;3.25;;;;;;;28.49;59.72;94830.91;4960968;28;20038;-83